M36 weather

Frank Federer Memorial Airport
Brinkley, Arkansas, United States

Public forecast

Using degrees Fahrenheit for public forecast. Weather courtesy of forecast.io.

METAR (pilot weather report)

Closest report is Stuttgart Municipal Airport / Carl Humphrey Field, 25.9 nm (48.0 km) SW. Retrieved 2019/09/17 08:56 UTC (21 minutes ago):

KSGT 170856Z AUTO 00000KT 10SM CLR 23/22 A3001 RMK AO2 SLP160 T02280217 55001

TAF (pilot weather forecast)

Closest forecast is Little Rock Air Force Base, 48.0 nm (88.9 km) W. Retrieved 2019/09/17 07:56 UTC (1 hour ago):

TAF KLRF 170700Z 1707/1813 VRB02KT 9999 SKC QNH2998INS BECMG 1714/1715 10006KT 9999 FEW060 QNH2993INS BECMG 1723/1724 11003KT 9999 FEW110 QNH2995INS TX35/1720Z TN20/1711Z